createdAt,value
2018-05-18T00:02:25.989Z,96.87
2018-05-18T00:04:53.606Z,96.79
2018-05-18T00:07:20.970Z,96.91
2018-05-18T00:09:47.976Z,97.05
2018-05-18T00:12:15.052Z,96.83
2018-05-18T00:14:43.697Z,96.64
2018-05-18T00:17:10.834Z,96.52
2018-05-18T00:19:38.102Z,96.41
2018-05-18T00:22:05.469Z,96.56
2018-05-18T00:24:32.647Z,96.58
2018-05-18T00:26:59.767Z,96.51
2018-05-18T00:29:27.095Z,96.38
2018-05-18T00:31:54.179Z,96.40
2018-05-18T00:34:21.327Z,96.52
2018-05-18T00:36:48.407Z,96.58
2018-05-18T00:39:15.450Z,96.35
2018-05-18T00:41:42.587Z,96.41
2018-05-18T00:44:09.767Z,96.42
2018-05-18T00:46:36.862Z,96.50
2018-05-18T00:49:04.073Z,96.69
2018-05-18T00:51:31.423Z,96.96
2018-05-18T00:53:58.914Z,96.98
2018-05-18T00:56:25.923Z,97.03
2018-05-18T00:58:52.951Z,97.18
2018-05-18T01:01:19.935Z,97.31
2018-05-18T01:03:47.212Z,97.16
2018-05-18T01:06:14.462Z,97.22
2018-05-18T01:08:41.464Z,97.45
2018-05-18T01:11:08.677Z,97.66
2018-05-18T01:13:35.739Z,97.76
2018-05-18T01:16:02.748Z,97.81
2018-05-18T01:18:29.848Z,97.83
2018-05-18T01:20:56.947Z,98.08
2018-05-18T01:23:24.027Z,98.11
2018-05-18T01:25:51.262Z,98.12
2018-05-18T01:28:18.969Z,98.01
2018-05-18T01:30:46.020Z,97.94
2018-05-18T01:33:13.119Z,97.95
2018-05-18T01:35:40.177Z,98.12
2018-05-18T01:38:07.862Z,98.37
2018-05-18T01:40:34.902Z,98.29
2018-05-18T01:43:02.019Z,98.20
2018-05-18T01:45:29.942Z,98.23
2018-05-18T01:47:57.114Z,98.23
2018-05-18T01:50:24.233Z,98.17
2018-05-18T01:52:51.606Z,98.07
2018-05-18T01:55:18.699Z,98.08
2018-05-18T01:57:45.699Z,98.05
2018-05-18T02:00:12.789Z,98.08
2018-05-18T02:02:39.794Z,98.24
2018-05-18T02:05:06.952Z,98.38
2018-05-18T02:07:34.208Z,98.43
2018-05-18T02:10:01.233Z,98.40
2018-05-18T02:12:28.474Z,98.43
2018-05-18T02:14:55.448Z,98.43
2018-05-18T02:17:22.649Z,98.55
2018-05-18T02:19:49.879Z,98.47
2018-05-18T02:22:17.248Z,98.53
2018-05-18T02:24:44.547Z,98.56
2018-05-18T02:27:11.955Z,98.36
2018-05-18T02:29:38.958Z,98.37
2018-05-18T02:32:05.955Z,98.28
2018-05-18T02:34:33.443Z,98.28
2018-05-18T02:37:00.534Z,98.37
2018-05-18T02:39:27.809Z,98.49
2018-05-18T02:41:54.865Z,98.48
2018-05-18T02:44:22.016Z,98.43
2018-05-18T02:46:49.157Z,98.31
2018-05-18T02:49:16.165Z,98.33
2018-05-18T02:51:43.258Z,98.35
2018-05-18T02:54:10.519Z,98.29
2018-05-18T02:56:37.815Z,98.33
2018-05-18T02:59:05.018Z,98.31
2018-05-18T03:01:32.017Z,98.46
2018-05-18T03:03:59.170Z,98.48
2018-05-18T03:06:26.920Z,98.47
2018-05-18T03:09:02.048Z,98.47
2018-05-18T03:11:29.153Z,98.45
2018-05-18T03:13:56.235Z,98.66
2018-05-18T03:16:23.302Z,98.69
2018-05-18T03:18:50.306Z,98.53
2018-05-18T03:21:17.363Z,98.45
2018-05-18T03:23:44.457Z,98.43
2018-05-18T03:26:11.814Z,98.38
2018-05-18T03:28:38.804Z,98.46
2018-05-18T03:31:05.828Z,98.41
2018-05-18T03:33:32.884Z,98.46
2018-05-18T03:35:59.874Z,98.40
2018-05-18T03:38:26.964Z,98.45
2018-05-18T03:40:54.643Z,98.46
2018-05-18T03:43:21.687Z,98.55
2018-05-18T03:45:48.814Z,98.54
2018-05-18T03:48:15.909Z,98.66
2018-05-18T03:50:43.087Z,98.57
2018-05-18T03:53:10.183Z,98.48
2018-05-18T03:55:37.183Z,98.30
2018-05-18T03:58:04.223Z,98.20
2018-05-18T04:00:31.330Z,98.26
2018-05-18T04:03:04.192Z,98.31
2018-05-18T04:05:37.082Z,98.47
2018-05-18T04:08:09.962Z,98.41
2018-05-18T04:10:37.818Z,98.40
2018-05-18T04:13:04.939Z,98.59
2018-05-18T04:15:31.983Z,98.64
2018-05-18T04:17:58.975Z,98.37
2018-05-18T04:20:26.001Z,98.36
2018-05-18T04:22:53.005Z,98.45
2018-05-18T04:25:19.987Z,98.49
2018-05-18T04:27:47.121Z,98.52
2018-05-18T04:30:14.622Z,98.54
2018-05-18T04:32:41.513Z,98.54
2018-05-18T04:35:08.569Z,98.24
2018-05-18T04:37:35.774Z,98.02
2018-05-18T04:40:02.749Z,97.65
2018-05-18T04:42:29.855Z,97.54
2018-05-18T04:44:56.910Z,97.41
2018-05-18T04:47:23.984Z,97.01
2018-05-18T04:49:51.157Z,96.93
2018-05-18T04:52:18.234Z,96.17
2018-05-18T04:54:45.234Z,96.04
2018-05-18T04:57:12.442Z,95.79
2018-05-18T04:59:39.735Z,95.51
2018-05-18T05:02:06.859Z,95.07
2018-05-18T05:04:33.896Z,94.30
2018-05-18T05:07:00.916Z,93.71
2018-05-18T05:09:27.913Z,92.63
2018-05-18T05:11:55.105Z,92.04
2018-05-18T05:14:22.380Z,91.25
2018-05-18T05:16:49.409Z,90.63
2018-05-18T05:19:16.463Z,89.37
2018-05-18T05:21:43.509Z,88.46
2018-05-18T05:24:10.498Z,86.92
2018-05-18T05:26:37.679Z,85.73
2018-05-18T05:29:04.694Z,83.00
2018-05-18T05:31:31.815Z,78.73
2018-05-18T05:33:58.848Z,73.76
2018-05-18T05:36:25.922Z,71.18
2018-05-18T05:38:53.031Z,68.06
2018-05-18T05:41:20.257Z,65.27
2018-05-18T05:43:47.319Z,64.18
2018-05-18T05:46:14.399Z,62.37
2018-05-18T05:48:41.409Z,60.30
2018-05-18T05:51:08.504Z,58.89
2018-05-18T05:53:35.505Z,58.33
2018-05-18T05:56:02.551Z,59.65
2018-05-18T05:58:29.691Z,60.77
2018-05-18T06:00:56.641Z,62.05
2018-05-18T06:03:23.844Z,63.90
2018-05-18T06:05:50.899Z,64.93
2018-05-18T06:08:18.198Z,67.14
2018-05-18T06:10:45.243Z,63.87
2018-05-18T06:13:12.434Z,62.75
2018-05-18T06:15:39.585Z,64.98
2018-05-18T06:18:06.620Z,70.11
2018-05-18T06:20:33.870Z,69.98
2018-05-18T06:23:01.372Z,67.69
2018-05-18T06:25:28.419Z,64.29
2018-05-18T06:27:55.675Z,63.89
2018-05-18T06:30:22.841Z,61.00
2018-05-18T06:32:49.870Z,61.61
2018-05-18T06:35:17.021Z,57.17
2018-05-18T06:37:43.943Z,56.93
2018-05-18T06:40:11.010Z,54.77
2018-05-18T06:42:38.096Z,53.41
2018-05-18T06:45:05.285Z,53.43
2018-05-18T06:47:32.264Z,54.97
2018-05-18T06:49:59.327Z,50.86
2018-05-18T06:52:26.423Z,52.14
2018-05-18T06:54:53.619Z,50.64
2018-05-18T06:57:20.657Z,46.83
2018-05-18T06:59:47.742Z,45.89
2018-05-18T07:02:14.749Z,47.81
2018-05-18T07:04:41.884Z,43.31
2018-05-18T07:07:09.008Z,43.55
2018-05-18T07:09:36.182Z,43.06
2018-05-18T07:12:03.548Z,40.76
2018-05-18T07:14:30.553Z,41.04
2018-05-18T07:16:57.583Z,39.06
2018-05-18T07:19:24.611Z,38.09
2018-05-18T07:21:51.633Z,38.96
2018-05-18T07:24:18.649Z,37.82
2018-05-18T07:26:45.934Z,36.71
2018-05-18T07:29:12.952Z,36.22
2018-05-18T07:31:40.002Z,34.55
2018-05-18T07:34:07.054Z,34.27
2018-05-18T07:36:34.081Z,31.36
2018-05-18T07:39:01.118Z,33.12
2018-05-18T07:41:28.768Z,31.58
2018-05-18T07:43:55.811Z,32.25
2018-05-18T07:46:22.799Z,30.79
2018-05-18T07:48:49.827Z,30.20
2018-05-18T07:51:16.865Z,30.78
2018-05-18T07:53:44.640Z,31.80
2018-05-18T07:56:12.114Z,29.11
2018-05-18T07:58:39.215Z,27.55
2018-05-18T08:01:06.303Z,26.60
2018-05-18T08:03:33.353Z,25.94
2018-05-18T08:06:00.911Z,29.01
2018-05-18T08:08:28.404Z,27.85
2018-05-18T08:10:55.964Z,26.30
2018-05-18T08:13:23.613Z,25.10
2018-05-18T08:15:51.165Z,25.49
2018-05-18T08:18:18.719Z,26.17
2018-05-18T08:20:46.321Z,24.83
2018-05-18T08:23:13.845Z,25.04
2018-05-18T08:25:41.328Z,25.79
2018-05-18T08:28:09.040Z,25.60
2018-05-18T08:30:48.680Z,25.00
2018-05-18T08:33:16.380Z,25.53
2018-05-18T08:35:43.845Z,25.47
2018-05-18T08:38:11.545Z,26.54
2018-05-18T08:40:39.115Z,24.39
2018-05-18T08:43:06.725Z,23.67
2018-05-18T08:45:34.212Z,23.24
2018-05-18T08:48:01.980Z,23.74
2018-05-18T08:50:30.322Z,23.60
2018-05-18T08:52:57.771Z,22.35
2018-05-18T08:55:25.277Z,22.62
2018-05-18T08:57:52.771Z,22.20
2018-05-18T09:00:20.323Z,20.96
2018-05-18T09:02:47.952Z,20.91
2018-05-18T09:05:15.795Z,20.47
2018-05-18T09:07:43.581Z,21.75
2018-05-18T09:10:11.129Z,20.73
2018-05-18T09:12:38.832Z,21.41
2018-05-18T09:15:06.431Z,21.42
2018-05-18T09:17:34.650Z,19.94
2018-05-18T09:20:02.116Z,20.61
2018-05-18T09:22:29.664Z,19.17
2018-05-18T09:24:57.177Z,19.54
2018-05-18T09:27:24.669Z,19.64
2018-05-18T09:29:52.313Z,18.86
2018-05-18T09:32:19.772Z,18.12
2018-05-18T09:34:47.521Z,18.42
2018-05-18T09:37:15.085Z,18.12
2018-05-18T09:39:42.571Z,17.64
2018-05-18T09:42:10.052Z,18.32
2018-05-18T09:44:37.501Z,17.33
2018-05-18T09:47:04.960Z,18.20
2018-05-18T09:49:32.511Z,17.68
2018-05-18T09:52:00.132Z,18.45
2018-05-18T09:54:28.013Z,16.66
2018-05-18T09:56:55.569Z,16.86
2018-05-18T09:59:23.157Z,16.32
2018-05-18T10:01:50.626Z,16.49
2018-05-18T10:04:18.111Z,17.38
2018-05-18T10:06:45.580Z,16.45
2018-05-18T10:09:13.297Z,15.45
2018-05-18T10:11:40.935Z,16.66
2018-05-18T10:14:08.455Z,16.20
2018-05-18T10:16:35.994Z,16.24
2018-05-18T10:19:03.562Z,15.88
2018-05-18T10:21:31.032Z,16.22
2018-05-18T10:23:58.515Z,14.96
2018-05-18T10:26:26.007Z,16.58
2018-05-18T10:28:53.550Z,15.95
2018-05-18T10:31:21.078Z,15.04
2018-05-18T10:33:48.551Z,13.87
2018-05-18T10:36:16.026Z,14.24
2018-05-18T10:38:43.540Z,13.59
2018-05-18T10:41:11.140Z,13.55
2018-05-18T10:43:38.592Z,13.57
2018-05-18T10:46:06.109Z,13.72
2018-05-18T10:48:33.596Z,14.46
2018-05-18T10:51:01.225Z,13.79
2018-05-18T10:53:28.733Z,14.46
2018-05-18T10:55:56.187Z,13.26
2018-05-18T10:58:23.721Z,12.50
2018-05-18T11:00:51.966Z,13.28
2018-05-18T11:03:19.856Z,13.74
2018-05-18T11:05:47.317Z,13.67
2018-05-18T11:08:14.967Z,14.17
2018-05-18T11:10:42.427Z,13.72
2018-05-18T11:13:09.900Z,14.17
2018-05-18T11:15:37.370Z,14.43
2018-05-18T11:18:04.920Z,13.96
2018-05-18T11:20:32.593Z,13.57
2018-05-18T11:23:00.071Z,13.51
2018-05-18T11:25:27.625Z,14.52
2018-05-18T11:27:55.171Z,13.75
2018-05-18T11:30:22.658Z,13.08
2018-05-18T11:32:50.156Z,13.75
2018-05-18T11:35:17.666Z,12.19
2018-05-18T11:37:45.897Z,14.09
2018-05-18T11:40:13.835Z,13.76
2018-05-18T11:42:41.613Z,13.48
2018-05-18T11:45:09.175Z,13.38
2018-05-18T11:47:36.665Z,13.47
2018-05-18T11:50:04.272Z,13.32
2018-05-18T11:52:31.872Z,14.10
2018-05-18T11:54:59.402Z,13.48
2018-05-18T11:57:27.101Z,14.29
2018-05-18T11:59:54.646Z,14.31
2018-05-18T12:02:22.608Z,15.06
2018-05-18T12:04:50.071Z,14.27
2018-05-18T12:07:17.816Z,13.54
2018-05-18T12:09:45.513Z,13.22
2018-05-18T12:12:13.031Z,14.01
2018-05-18T12:14:40.511Z,14.07
2018-05-18T12:17:08.113Z,14.23
2018-05-18T12:19:35.646Z,13.92
2018-05-18T12:22:03.356Z,13.91
2018-05-18T12:24:30.981Z,13.65
2018-05-18T12:26:58.729Z,13.96
2018-05-18T12:29:26.596Z,14.87
2018-05-18T12:31:54.252Z,17.07
2018-05-18T12:34:21.743Z,17.00
2018-05-18T12:36:49.195Z,15.95
2018-05-18T12:39:16.853Z,15.87
2018-05-18T12:41:44.506Z,16.46
2018-05-18T12:44:12.043Z,16.06
2018-05-18T12:46:39.591Z,16.20
2018-05-18T12:49:07.567Z,16.48
2018-05-18T12:51:35.912Z,16.19
2018-05-18T12:54:03.591Z,16.87
2018-05-18T12:56:31.023Z,17.42
2018-05-18T12:58:58.483Z,18.43
2018-05-18T13:01:26.081Z,18.12
2018-05-18T13:03:53.687Z,18.58
2018-05-18T13:06:21.477Z,19.28
2018-05-18T13:08:49.403Z,18.84
2018-05-18T13:11:17.146Z,19.47
2018-05-18T13:13:44.767Z,19.75
2018-05-18T13:16:12.326Z,20.99
2018-05-18T13:18:39.793Z,21.39
2018-05-18T13:21:07.343Z,23.21
2018-05-18T13:23:35.279Z,24.68
2018-05-18T13:26:02.857Z,24.33
2018-05-18T13:28:29.867Z,25.77
2018-05-18T13:30:57.027Z,25.93
2018-05-18T13:33:24.548Z,25.80
2018-05-18T13:35:51.538Z,25.80
2018-05-18T13:38:18.683Z,27.67
2018-05-18T13:40:46.358Z,26.90
2018-05-18T13:43:13.529Z,26.49
2018-05-18T13:45:40.687Z,27.29
2018-05-18T13:48:08.062Z,27.93
2018-05-18T13:50:35.522Z,27.95
2018-05-18T13:53:03.179Z,28.38
2018-05-18T13:55:31.443Z,29.57
2018-05-18T13:57:59.027Z,29.17
2018-05-18T14:00:26.618Z,28.49
2018-05-18T14:02:54.167Z,29.85
2018-05-18T14:05:21.558Z,29.31
2018-05-18T14:07:49.068Z,29.92
2018-05-18T14:10:16.588Z,29.40
2018-05-18T14:12:44.255Z,29.21
2018-05-18T14:15:12.051Z,31.53
2018-05-18T14:17:39.590Z,30.97
2018-05-18T14:20:07.142Z,30.43
2018-05-18T14:22:34.988Z,30.68
2018-05-18T14:25:02.497Z,30.69
2018-05-18T14:27:30.186Z,31.55
2018-05-18T14:29:57.696Z,32.48
2018-05-18T14:32:25.153Z,33.17
2018-05-18T14:34:52.612Z,31.21
2018-05-18T14:37:20.188Z,31.14
2018-05-18T14:39:47.879Z,32.01
2018-05-18T14:42:15.420Z,33.25
2018-05-18T14:44:43.110Z,34.09
2018-05-18T14:47:10.609Z,33.47
2018-05-18T14:49:37.640Z,32.87
2018-05-18T14:52:04.826Z,32.91
2018-05-18T14:54:31.914Z,32.75
2018-05-18T14:56:59.509Z,33.81
2018-05-18T14:59:26.967Z,33.72
2018-05-18T15:01:54.448Z,34.24
2018-05-18T15:04:21.474Z,35.09
2018-05-18T15:06:49.084Z,36.15
2018-05-18T15:09:16.658Z,36.45
2018-05-18T15:11:44.253Z,35.35
2018-05-18T15:14:12.153Z,36.17
2018-05-18T15:16:39.719Z,35.76
2018-05-18T15:19:07.470Z,37.10
2018-05-18T15:21:35.013Z,37.11
2018-05-18T15:24:02.555Z,37.08
2018-05-18T15:26:30.117Z,37.24
2018-05-18T15:28:57.655Z,37.38
2018-05-18T15:31:25.312Z,37.20
2018-05-18T15:33:52.805Z,38.09
2018-05-18T15:36:20.479Z,39.19
2018-05-18T15:38:48.232Z,38.14
2018-05-18T15:41:16.158Z,37.82
2018-05-18T15:43:43.868Z,38.72
2018-05-18T15:46:11.517Z,38.75
2018-05-18T15:48:38.531Z,39.07
2018-05-18T15:51:05.613Z,38.32
2018-05-18T15:53:32.612Z,38.66
2018-05-18T15:55:59.647Z,38.70
2018-05-18T15:58:26.645Z,38.72
2018-05-18T16:00:53.755Z,38.40
2018-05-18T16:03:22.258Z,38.58
2018-05-18T16:05:49.461Z,38.72
2018-05-18T16:08:17.094Z,39.21
2018-05-18T16:10:44.136Z,39.86
2018-05-18T16:13:11.198Z,40.16
2018-05-18T16:15:38.391Z,40.38
2018-05-18T16:18:05.919Z,40.17
2018-05-18T16:20:33.399Z,41.43
2018-05-18T16:23:00.582Z,40.91
2018-05-18T16:25:27.606Z,41.21
2018-05-18T16:27:54.705Z,40.88
2018-05-18T16:30:22.369Z,40.96
2018-05-18T16:32:49.525Z,41.34
2018-05-18T16:35:17.012Z,41.51
2018-05-18T16:37:44.158Z,41.76
2018-05-18T16:40:11.172Z,40.94
2018-05-18T16:42:38.205Z,41.68
2018-05-18T16:45:05.740Z,41.80
2018-05-18T16:47:33.243Z,41.75
2018-05-18T16:50:00.799Z,41.81
2018-05-18T16:52:28.285Z,41.17
2018-05-18T16:54:55.759Z,40.99
2018-05-18T16:57:23.231Z,40.85
2018-05-18T16:59:50.788Z,40.98
2018-05-18T17:02:18.253Z,41.54
2018-05-18T17:04:45.260Z,42.10
2018-05-18T17:07:12.903Z,41.09
2018-05-18T17:09:40.440Z,42.65
2018-05-18T17:12:08.101Z,43.33
2018-05-18T17:14:35.838Z,42.74
2018-05-18T17:17:03.763Z,42.88
2018-05-18T17:19:31.354Z,43.33
2018-05-18T17:21:59.810Z,43.38
2018-05-18T17:24:27.547Z,43.80
2018-05-18T17:26:55.834Z,44.42
2018-05-18T17:29:23.119Z,44.34
2018-05-18T17:31:50.187Z,43.93
2018-05-18T17:34:17.742Z,43.91
2018-05-18T17:36:45.234Z,44.13
2018-05-18T17:39:12.237Z,43.64
2018-05-18T17:41:39.869Z,44.64
2018-05-18T17:44:07.048Z,44.16
2018-05-18T17:46:34.078Z,44.61
2018-05-18T17:49:01.361Z,45.40
2018-05-18T17:51:29.023Z,46.02
2018-05-18T17:53:56.193Z,45.74
2018-05-18T17:56:23.430Z,45.61
2018-05-18T17:58:50.605Z,46.26
2018-05-18T18:01:17.819Z,46.77
2018-05-18T18:03:45.151Z,47.28
2018-05-18T18:06:12.480Z,48.02
2018-05-18T18:08:39.626Z,48.37
2018-05-18T18:11:06.633Z,48.83
2018-05-18T18:13:33.657Z,49.36
2018-05-18T18:16:01.365Z,49.60
2018-05-18T18:18:28.420Z,49.89
2018-05-18T18:20:55.423Z,50.41
2018-05-18T18:23:22.544Z,50.65
2018-05-18T18:25:49.623Z,50.89
2018-05-18T18:28:16.657Z,50.79
2018-05-18T18:30:43.724Z,51.45
2018-05-18T18:33:10.750Z,51.38
2018-05-18T18:35:37.876Z,51.87
2018-05-18T18:38:04.915Z,53.58
2018-05-18T18:40:32.668Z,54.25
2018-05-18T18:42:59.861Z,54.79
2018-05-18T18:45:27.182Z,55.18
2018-05-18T18:47:54.384Z,58.66
2018-05-18T18:50:21.761Z,59.29
2018-05-18T18:52:48.874Z,59.97
2018-05-18T18:55:16.520Z,60.44
2018-05-18T18:57:43.813Z,61.42
2018-05-18T19:00:12.313Z,61.36
2018-05-18T19:02:40.419Z,62.85
2018-05-18T19:05:07.606Z,63.53
2018-05-18T19:07:34.666Z,64.11
2018-05-18T19:10:01.974Z,65.78
2018-05-18T19:12:29.042Z,64.68
2018-05-18T19:14:56.323Z,66.25
2018-05-18T19:17:23.584Z,66.20
2018-05-18T19:19:50.801Z,66.47
2018-05-18T19:22:17.906Z,66.78
2018-05-18T19:24:45.195Z,66.96
2018-05-18T19:27:12.379Z,67.25
2018-05-18T19:29:39.916Z,68.31
2018-05-18T19:32:07.404Z,68.39
2018-05-18T19:34:35.197Z,69.82
2018-05-18T19:37:02.407Z,70.02
2018-05-18T19:39:29.756Z,69.68
2018-05-18T19:41:56.801Z,70.18
2018-05-18T19:44:23.826Z,70.80
2018-05-18T19:46:51.062Z,70.54
2018-05-18T19:49:18.274Z,71.36
2018-05-18T19:51:45.355Z,72.02
2018-05-18T19:54:12.878Z,71.72
2018-05-18T19:56:39.985Z,71.20
2018-05-18T19:59:07.019Z,71.92
2018-05-18T20:01:34.761Z,72.53
2018-05-18T20:04:01.813Z,73.15
2018-05-18T20:06:29.037Z,73.78
2018-05-18T20:08:56.082Z,74.02
2018-05-18T20:11:23.676Z,74.05
2018-05-18T20:13:51.179Z,74.33
2018-05-18T20:16:18.544Z,75.25
2018-05-18T20:18:45.874Z,74.42
2018-05-18T20:21:13.120Z,74.75
2018-05-18T20:23:40.799Z,75.59
2018-05-18T20:26:07.919Z,76.00
2018-05-18T20:28:35.424Z,76.89
2018-05-18T20:31:02.751Z,77.03
2018-05-18T20:33:29.940Z,77.62
2018-05-18T20:35:56.968Z,77.69
2018-05-18T20:38:24.238Z,77.86
2018-05-18T20:40:52.136Z,78.59
2018-05-18T20:43:19.224Z,78.55
2018-05-18T20:45:46.305Z,79.34
2018-05-18T20:48:13.334Z,79.80
2018-05-18T20:50:40.352Z,80.05
2018-05-18T20:53:07.399Z,79.83
2018-05-18T20:55:34.941Z,80.49
2018-05-18T20:58:02.374Z,80.99
2018-05-18T21:00:29.452Z,80.94
2018-05-18T21:02:56.800Z,81.13
2018-05-18T21:05:23.970Z,82.05
2018-05-18T21:07:51.053Z,82.51
2018-05-18T21:10:18.731Z,82.17
2018-05-18T21:12:45.830Z,83.10
2018-05-18T21:15:12.844Z,82.93
2018-05-18T21:17:39.915Z,83.42
2018-05-18T21:20:07.214Z,83.59
2018-05-18T21:22:34.311Z,83.53
2018-05-18T21:25:01.331Z,84.08
2018-05-18T21:27:28.546Z,84.25
2018-05-18T21:29:55.664Z,84.49
2018-05-18T21:32:22.793Z,84.54
2018-05-18T21:34:50.086Z,85.00
2018-05-18T21:37:17.483Z,84.71
2018-05-18T21:39:45.072Z,85.42
2018-05-18T21:42:12.691Z,85.41
2018-05-18T21:44:39.753Z,85.37
2018-05-18T21:47:06.775Z,85.36
2018-05-18T21:49:33.811Z,85.33
2018-05-18T21:52:00.821Z,85.83
2018-05-18T21:54:27.976Z,86.19
2018-05-18T21:56:55.181Z,86.52
2018-05-18T21:59:22.341Z,86.69
2018-05-18T22:01:49.447Z,86.24
2018-05-18T22:04:16.580Z,86.47
2018-05-18T22:06:43.630Z,87.00
2018-05-18T22:09:10.703Z,87.19
2018-05-18T22:11:37.889Z,87.25
2018-05-18T22:14:05.053Z,87.07
2018-05-18T22:16:32.131Z,87.21
2018-05-18T22:18:59.266Z,87.41
2018-05-18T22:21:26.384Z,87.17
2018-05-18T22:23:53.664Z,87.10
2018-05-18T22:26:20.810Z,87.30
2018-05-18T22:28:47.851Z,87.52
2018-05-18T22:31:15.149Z,87.70
2018-05-18T22:33:42.251Z,87.61
2018-05-18T22:36:09.481Z,87.89
2018-05-18T22:38:36.686Z,88.24
2018-05-18T22:41:03.801Z,88.41
2018-05-18T22:43:30.800Z,88.52
2018-05-18T22:45:57.847Z,89.05
2018-05-18T22:48:24.974Z,89.04
2018-05-18T22:50:52.419Z,88.59
2018-05-18T22:53:19.496Z,88.53
2018-05-18T22:55:46.520Z,89.04
2018-05-18T22:58:13.609Z,89.32
2018-05-18T23:00:40.998Z,89.43
2018-05-18T23:03:08.349Z,89.31
2018-05-18T23:05:35.670Z,89.26
2018-05-18T23:08:02.801Z,89.33
2018-05-18T23:10:30.017Z,89.43
2018-05-18T23:12:57.054Z,89.31
2018-05-18T23:15:24.179Z,89.05
2018-05-18T23:17:51.260Z,89.29
2018-05-18T23:20:18.514Z,89.78
2018-05-18T23:22:45.508Z,90.00
2018-05-18T23:25:12.576Z,90.18
2018-05-18T23:27:39.553Z,90.37
2018-05-18T23:30:06.870Z,90.00
2018-05-18T23:32:33.996Z,89.58
2018-05-18T23:35:01.075Z,89.61
2018-05-18T23:37:28.163Z,89.90
2018-05-18T23:39:55.716Z,90.14
2018-05-18T23:42:22.809Z,90.34
2018-05-18T23:44:49.973Z,90.38
2018-05-18T23:47:17.099Z,90.38
2018-05-18T23:49:44.106Z,90.07
2018-05-18T23:52:11.272Z,89.81
2018-05-18T23:54:38.524Z,89.78
2018-05-18T23:57:05.998Z,89.96
2018-05-18T23:59:33.022Z,90.11
